Home > Products > Valid Products > TAF

000
FTUS42 KCHS 011100
TAFCHS
TAF
KCHS 011120Z 0112/0212 VRB03KT P6SM SCT015 SCT250
     FM011900 17010KT P6SM SCT035 SCT250
     FM020100 20005KT P6SM FEW025 SCT250=



000
FTUS42 KCHS 011100
TAFSAV
TAF
KSAV 011120Z 0112/0212 VRB03KT P6SM SCT015 SCT250
     FM011900 13010KT P6SM SCT035 SCT250
     FM020100 18004KT P6SM FEW050 SCT250=



000
FTUS42 KCHS 010500
TAFSAV
TAF
KSAV 010520Z 0106/0206 VRB03KT P6SM SCT015 SCT250
     FM011900 14010KT P6SM SCT035 SCT250
     FM020100 18005KT P6SM FEW050 SCT250=



000
FTUS42 KCHS 010500
TAFCHS
TAF
KCHS 010520Z 0106/0206 VRB03KT P6SM SCT015 SCT250
     FM011900 17010KT P6SM SCT035 SCT250
     FM020100 20005KT P6SM FEW025 SCT250=



000
FTUS42 KCHS 312300
TAFCHS
TAF
KCHS 312340Z 0100/0124 18008KT P6SM FEW025 SCT250
     FM010300 VRB05KT P6SM SCT015
     FM011800 16008KT P6SM SCT035=



000
FTUS42 KCHS 312300
TAFSAV
TAF
KSAV 312340Z 0100/0124 17007KT P6SM FEW050 SCT250
     FM010300 VRB03KT P6SM SCT015
     FM011800 13008KT P6SM SCT035=



000
FTUS42 KCHS 311700
TAFSAV
TAF
KSAV 311730Z 3118/0118 13010KT P6SM SCT035 SCT250
     FM010200 VRB05KT P6SM SCT015=



000
FTUS42 KCHS 311700
TAFCHS
TAF
KCHS 311730Z 3118/0118 VRB05KT P6SM SCT035 SCT250
     FM311930 16010KT P6SM SCT040 SCT250
     FM010200 VRB05KT P6SM SCT015=



000
FTUS42 KCHS 311100
TAFCHS
TAF
KCHS 311121Z 3112/0112 VRB04KT P6SM FEW025 SCT250
     FM311900 16008KT P6SM SCT035
     FM010200 VRB02KT P6SM SCT015=



000
FTUS42 KCHS 311100
TAFSAV
TAF
KSAV 311121Z 3112/0112 VRB04KT P6SM FEW025 SCT250
     FM311900 13008KT P6SM SCT035
     FM010200 VRB02KT P6SM FEW015=



000
FTUS42 KCHS 310500
TAFCHS
TAF
KCHS 310520Z 3106/0106 00000KT 6SM BR FEW008 SCT015
     FM311600 16007KT P6SM SCT035=



000
FTUS42 KCHS 310500
TAFSAV
TAF
KSAV 310520Z 3106/0106 00000KT 6SM BR FEW005 SCT015
     FM311600 12007KT P6SM SCT035=



000
FTUS42 KCHS 302300
TAFSAV
TAF
KSAV 302334Z 3100/3124 12007KT P6SM FEW030
     FM310100 VRB03KT P6SM SKC
     FM310800 00000KT 5SM BR FEW003 SCT015
     FM311300 VRB04KT P6SM SCT015
     FM311800 13008KT P6SM SCT030=



000
FTUS42 KCHS 302300
TAFCHS
TAF
KCHS 302334Z 3100/3124 14007KT P6SM FEW025
     FM310100 VRB03KT P6SM SKC
     FM310800 00000KT 6SM BR FEW003 SCT015
     FM311300 VRB05KT P6SM SCT020
     FM311800 17009KT P6SM SCT035=



000
FTUS42 KCHS 301700
TAFCHS
TAF
KCHS 301737Z 3018/3118 14010KT P6SM SCT060
     FM310100 17003KT P6SM FEW025
     FM310600 VRB02KT 6SM BR FEW002 SCT015
     FM311300 14005KT P6SM SCT035=



000
FTUS42 KCHS 301700
TAFSAV
TAF
KSAV 301737Z 3018/3118 12010G15KT P6SM SCT050
     FM310100 VRB03KT P6SM FEW025
     FM310600 VRB02KT 6SM BR FEW002 SCT015
     FM311300 08005KT P6SM SCT035=



000
FTUS42 KCHS 301500 AAA
TAFCHS
TAF AMD
KCHS 301534Z 3016/3112 VRB05KT P6SM VCSH BKN035
      TEMPO 3016/3017 5SM SHRA BR BKN025
     FM301700 14008KT P6SM SCT035
     FM310100 17003KT P6SM SCT015=



000
FTUS42 KCHS 301100
TAFSAV
TAF
KSAV 301138Z 3012/3112 VRB03KT P6SM SCT015
     FM301500 12009KT P6SM SCT035
     FM310100 VRB03KT P6SM SCT015=



000
FTUS42 KCHS 301100
TAFCHS
TAF
KCHS 301138Z 3012/3112 VRB03KT P6SM SCT015
     FM301500 14008KT P6SM SCT035
     FM310100 17003KT P6SM SCT015=



000
FTUS42 KCHS 300500
TAFCHS
TAF
KCHS 300523Z 3006/3106 00000KT P6SM FEW020
      TEMPO 3009/3013 6SM BR FEW005 SCT015
     FM301400 14008KT P6SM SCT035
     FM310100 16003KT P6SM FEW025=



000
FTUS42 KCHS 300500
TAFSAV
TAF
KSAV 300523Z 3006/3106 00000KT P6SM FEW025
      TEMPO 3009/3013 6SM BR FEW005 SCT015
     FM301500 12008KT P6SM SCT040
     FM310100 16003KT P6SM FEW025=



000
FTUS42 KCHS 292300
TAFCHS
TAF
KCHS 292320Z 3000/3024 16005KT P6SM FEW020
     FM300800 00000KT 6SM BR FEW006 SCT015
     FM301400 14008KT P6SM SCT035=



000
FTUS42 KCHS 292300
TAFSAV
TAF
KSAV 292320Z 3000/3024 15005KT P6SM FEW025
     FM300800 00000KT 6SM BR FEW006 SCT015
     FM301500 12008KT P6SM SCT040=



000
FTUS42 KCHS 291700
TAFCHS
TAF
KCHS 291727Z 2918/3018 16009KT P6SM SCT035
     FM300000 17004KT P6SM FEW080
     FM300800 00000KT 6SM BR FEW006
     FM301300 12005KT P6SM FEW040=



000
FTUS42 KCHS 291700
TAFSAV
TAF
KSAV 291727Z 2918/3018 13008KT P6SM SCT050
     FM300100 16003KT P6SM FEW020
     FM300800 00000KT 6SM BR FEW006
     FM301300 11005KT P6SM FEW040=



    US Dept of Commerce
    National Oceanic and Atmospheric Administration
    National Weather Service
    1325 East West Highway
    Silver Spring, MD 20910
    Page Author: NWS Internet Services Team
Disclaimer
Information Quality
Credits
Glossary
Privacy Policy
Freedom of Information Act (FOIA)
About Us
Career Opportunities